createdAt,value
2024-04-12T00:02:14.132Z,3.17
2024-04-12T00:04:44.308Z,3.40
2024-04-12T00:07:17.587Z,3.20
2024-04-12T00:09:55.270Z,3.73
2024-04-12T00:12:29.915Z,2.43
2024-04-12T00:15:18.376Z,2.20
2024-04-12T00:17:49.450Z,2.50
2024-04-12T00:20:19.780Z,2.10
2024-04-12T00:22:50.229Z,2.03
2024-04-12T00:25:18.626Z,2.60
2024-04-12T00:27:46.888Z,2.10
2024-04-12T00:30:35.356Z,2.10
2024-04-12T00:33:10.325Z,1.70
2024-04-12T00:35:42.828Z,2.27
2024-04-12T00:38:15.324Z,1.93
2024-04-12T00:40:48.076Z,2.30
2024-04-12T00:43:18.772Z,2.10
2024-04-12T00:45:49.914Z,2.37
2024-04-12T00:48:19.445Z,1.97
2024-04-12T00:50:48.363Z,2.00
2024-04-12T00:53:24.070Z,2.17
2024-04-12T00:56:06.431Z,1.93
2024-04-12T00:58:34.942Z,2.10
2024-04-12T01:01:32.577Z,2.03
2024-04-12T01:04:01.803Z,1.87
2024-04-12T01:06:30.694Z,2.13
2024-04-12T01:09:14.488Z,1.97
2024-04-12T01:11:45.222Z,2.10
2024-04-12T01:14:18.116Z,2.10
2024-04-12T01:16:46.598Z,2.10
2024-04-12T01:19:14.972Z,2.17
2024-04-12T01:21:46.116Z,2.13
2024-04-12T01:24:17.774Z,1.70
2024-04-12T01:26:46.317Z,1.83
2024-04-12T01:29:14.717Z,2.00
2024-04-12T01:31:45.672Z,2.10
2024-04-12T01:34:15.065Z,2.10
2024-04-12T01:36:45.105Z,1.70
2024-04-12T01:39:13.640Z,2.87
2024-04-12T01:41:42.145Z,2.10
2024-04-12T01:44:10.799Z,2.30
2024-04-12T01:46:39.332Z,1.70
2024-04-12T01:49:11.853Z,2.30
2024-04-12T01:51:41.821Z,1.87
2024-04-12T01:54:18.722Z,1.87
2024-04-12T01:56:50.032Z,1.77
2024-04-12T01:59:23.711Z,2.27
2024-04-12T02:01:53.557Z,1.80
2024-04-12T02:04:23.393Z,2.10
2024-04-12T02:06:52.913Z,1.90
2024-04-12T02:09:21.796Z,1.80
2024-04-12T02:11:54.826Z,2.10
2024-04-12T02:14:24.062Z,2.40
2024-04-12T02:16:52.595Z,1.90
2024-04-12T02:19:23.738Z,1.93
2024-04-12T02:21:52.324Z,2.30
2024-04-12T02:24:20.702Z,2.50
2024-04-12T02:26:50.295Z,2.60
2024-04-12T02:29:23.228Z,2.30
2024-04-12T02:31:52.557Z,2.03
2024-04-12T02:34:21.131Z,1.87
2024-04-12T02:36:49.611Z,2.43
2024-04-12T02:39:25.487Z,2.23
2024-04-12T02:41:56.176Z,2.27
2024-04-12T02:44:26.521Z,2.17
2024-04-12T02:46:55.565Z,2.57
2024-04-12T02:49:24.497Z,2.47
2024-04-12T02:51:54.657Z,2.47
2024-04-12T02:54:26.130Z,1.77
2024-04-12T02:56:58.355Z,2.20
2024-04-12T02:59:28.703Z,2.40
2024-04-12T03:01:57.572Z,2.20
2024-04-12T03:04:26.655Z,2.00
2024-04-12T03:06:57.486Z,2.00
2024-04-12T03:09:29.008Z,2.00
2024-04-12T03:12:01.950Z,2.50
2024-04-12T03:14:31.918Z,2.30
2024-04-12T03:17:05.649Z,2.37
2024-04-12T03:19:35.865Z,2.50
2024-04-12T03:22:05.376Z,2.20
2024-04-12T03:24:34.191Z,2.40
2024-04-12T03:27:03.128Z,2.43
2024-04-12T03:29:32.061Z,3.13
2024-04-12T03:32:00.462Z,2.43
2024-04-12T03:34:28.968Z,2.67
2024-04-12T03:36:58.738Z,2.60
2024-04-12T03:39:33.279Z,3.10
2024-04-12T03:42:06.636Z,2.97
2024-04-12T03:44:38.326Z,2.60
2024-04-12T03:47:13.256Z,2.50
2024-04-12T03:49:44.460Z,2.60
2024-04-12T03:52:16.567Z,2.73
2024-04-12T03:54:48.078Z,2.70
2024-04-12T03:57:17.565Z,2.67
2024-04-12T03:59:46.840Z,3.57
2024-04-12T04:02:17.741Z,2.53
2024-04-12T04:04:47.643Z,2.80
2024-04-12T04:07:18.088Z,2.90
2024-04-12T04:09:48.103Z,2.60
2024-04-12T04:12:17.706Z,3.10
2024-04-12T04:14:51.293Z,2.83
2024-04-12T04:17:32.046Z,2.80
2024-04-12T04:20:08.637Z,2.90
2024-04-12T04:22:37.934Z,2.73
2024-04-12T04:25:10.099Z,3.03
2024-04-12T04:27:39.659Z,2.77
2024-04-12T04:30:08.859Z,2.60
2024-04-12T04:32:37.729Z,2.77
2024-04-12T04:35:07.082Z,2.70
2024-04-12T04:37:39.096Z,2.80
2024-04-12T04:40:19.807Z,2.53
2024-04-12T04:42:51.505Z,3.00
2024-04-12T04:45:22.986Z,2.40
2024-04-12T04:47:52.670Z,2.73
2024-04-12T04:50:21.283Z,2.50
2024-04-12T04:52:52.915Z,2.70
2024-04-12T04:55:21.376Z,2.63
2024-04-12T04:57:56.999Z,2.70
2024-04-12T05:00:26.419Z,2.30
2024-04-12T05:02:55.675Z,3.10
2024-04-12T05:05:26.676Z,2.50
2024-04-12T05:07:56.905Z,2.77
2024-04-12T05:10:26.890Z,2.90
2024-04-12T05:12:55.947Z,3.10
2024-04-12T05:15:42.413Z,2.67
2024-04-12T05:18:14.890Z,2.80
2024-04-12T05:20:44.489Z,3.30
2024-04-12T05:23:14.162Z,3.53
2024-04-12T05:25:44.647Z,3.33
2024-04-12T05:28:13.998Z,3.67
2024-04-12T05:30:44.537Z,4.00
2024-04-12T05:33:18.142Z,4.00
2024-04-12T05:35:47.769Z,3.60
2024-04-12T05:38:22.595Z,3.20
2024-04-12T05:40:55.295Z,3.00
2024-04-12T05:43:25.241Z,3.30
2024-04-12T05:45:55.505Z,3.63
2024-04-12T05:48:25.023Z,3.60
2024-04-12T05:50:59.879Z,4.10
2024-04-12T05:53:32.928Z,3.83
2024-04-12T05:56:21.975Z,3.97
2024-04-12T05:58:53.401Z,4.83
2024-04-12T06:01:26.727Z,3.30
2024-04-12T06:03:56.674Z,4.57
2024-04-12T06:06:32.245Z,4.53
2024-04-12T06:09:10.415Z,4.30
2024-04-12T06:11:43.678Z,3.87
2024-04-12T06:14:15.445Z,4.57
2024-04-12T06:16:45.596Z,4.10
2024-04-12T06:19:13.916Z,4.30
2024-04-12T06:21:46.779Z,4.40
2024-04-12T06:24:17.523Z,4.10
2024-04-12T06:26:49.133Z,4.10
2024-04-12T06:29:26.607Z,4.17
2024-04-12T06:32:01.436Z,4.40
2024-04-12T06:34:29.791Z,3.57
2024-04-12T06:36:58.182Z,4.30
2024-04-12T06:39:29.902Z,3.80
2024-04-12T06:42:05.261Z,4.30
2024-04-12T06:44:34.094Z,4.00
2024-04-12T06:47:07.498Z,4.30
2024-04-12T06:49:38.952Z,4.10
2024-04-12T06:52:11.114Z,4.13
2024-04-12T06:54:44.305Z,4.20
2024-04-12T06:57:23.985Z,4.00
2024-04-12T07:00:02.716Z,4.27
2024-04-12T07:02:32.352Z,4.10
2024-04-12T07:05:01.962Z,4.70
2024-04-12T07:07:30.860Z,4.30
2024-04-12T07:10:11.283Z,4.17
2024-04-12T07:12:40.281Z,5.17
2024-04-12T07:15:12.254Z,4.17
2024-04-12T07:17:41.404Z,3.80
2024-04-12T07:20:25.942Z,3.80
2024-04-12T07:22:56.470Z,4.50
2024-04-12T07:25:25.067Z,5.37
2024-04-12T07:27:55.347Z,4.73
2024-04-12T07:30:24.095Z,5.03
2024-04-12T07:32:55.074Z,5.00
2024-04-12T07:35:26.954Z,5.37
2024-04-12T07:37:59.294Z,4.77
2024-04-12T07:40:37.265Z,5.80
2024-04-12T07:43:11.459Z,6.00
2024-04-12T07:45:42.437Z,4.40
2024-04-12T07:48:29.194Z,4.93
2024-04-12T07:51:03.011Z,5.07
2024-04-12T07:53:37.187Z,5.57
2024-04-12T07:56:10.711Z,6.10
2024-04-12T07:58:42.484Z,5.13
2024-04-12T08:01:27.461Z,6.07
2024-04-12T08:03:58.663Z,5.20
2024-04-12T08:06:45.734Z,5.13
2024-04-12T08:09:23.903Z,5.57
2024-04-12T08:11:53.723Z,5.90
2024-04-12T08:14:23.636Z,6.00
2024-04-12T08:16:56.597Z,6.87
2024-04-12T08:19:39.735Z,7.03
2024-04-12T08:22:09.194Z,6.33
2024-04-12T08:24:42.936Z,6.57
2024-04-12T08:27:11.666Z,7.37
2024-04-12T08:29:41.905Z,6.60
2024-04-12T08:32:11.951Z,7.60
2024-04-12T08:34:45.808Z,6.60
2024-04-12T08:37:17.811Z,8.47
2024-04-12T08:39:56.866Z,9.10
2024-04-12T08:42:33.974Z,9.33
2024-04-12T08:45:15.922Z,9.83
2024-04-12T08:48:15.845Z,9.47
2024-04-12T08:50:50.202Z,9.40
2024-04-12T08:53:23.226Z,10.00
2024-04-12T08:55:52.278Z,9.43
2024-04-12T08:58:25.707Z,8.20
2024-04-12T09:00:56.879Z,9.33
2024-04-12T09:03:27.422Z,10.03
2024-04-12T09:05:58.792Z,9.43
2024-04-12T09:08:33.303Z,9.90
2024-04-12T09:11:08.436Z,9.37
2024-04-12T09:13:40.642Z,9.73
2024-04-12T09:16:11.264Z,9.30
2024-04-12T09:18:47.370Z,8.97
2024-04-12T09:21:30.816Z,9.90
2024-04-12T09:24:11.270Z,8.93
2024-04-12T09:26:57.323Z,8.43
2024-04-12T09:29:30.473Z,8.27
2024-04-12T09:32:18.587Z,8.67
2024-04-12T09:34:57.585Z,8.10
2024-04-12T09:37:31.863Z,7.00
2024-04-12T09:40:02.643Z,8.27
2024-04-12T09:42:53.866Z,8.57
2024-04-12T09:45:29.818Z,7.73
2024-04-12T09:48:18.207Z,7.13
2024-04-12T09:51:05.422Z,7.37
2024-04-12T09:53:52.420Z,7.80
2024-04-12T09:56:40.259Z,7.97
2024-04-12T09:59:37.199Z,6.20
2024-04-12T10:02:24.652Z,8.03
2024-04-12T10:05:12.983Z,7.40
2024-04-12T10:08:00.962Z,7.43
2024-04-12T10:10:49.549Z,7.03
2024-04-12T10:13:37.110Z,8.60
2024-04-12T10:16:24.509Z,6.70
2024-04-12T10:19:17.510Z,7.00
2024-04-12T10:22:05.398Z,6.93
2024-04-12T10:24:52.509Z,7.43
2024-04-12T10:27:39.693Z,7.03
2024-04-12T10:30:29.803Z,7.87
2024-04-12T10:33:27.281Z,7.77
2024-04-12T10:36:15.729Z,6.93
2024-04-12T10:38:48.560Z,6.33
2024-04-12T10:41:17.466Z,6.83
2024-04-12T10:43:46.858Z,5.57
2024-04-12T10:46:15.553Z,5.53
2024-04-12T10:48:44.159Z,6.80
2024-04-12T10:51:16.568Z,6.70
2024-04-12T10:53:48.039Z,5.77
2024-04-12T10:56:21.144Z,6.13
2024-04-12T10:58:58.114Z,5.40
2024-04-12T11:01:28.581Z,5.83
2024-04-12T11:03:59.573Z,5.80
2024-04-12T11:06:33.541Z,5.83
2024-04-12T11:09:06.872Z,5.60
2024-04-12T11:11:40.373Z,5.57
2024-04-12T11:14:17.386Z,5.50
2024-04-12T11:17:08.712Z,6.23
2024-04-12T11:19:57.253Z,5.50
2024-04-12T11:22:48.178Z,6.03
2024-04-12T11:25:35.393Z,6.07
2024-04-12T11:28:23.628Z,6.83
2024-04-12T11:31:16.763Z,5.83
2024-04-12T11:33:48.725Z,5.50
2024-04-12T11:36:27.861Z,4.00
2024-04-12T11:38:56.317Z,5.07
2024-04-12T11:41:25.451Z,5.73
2024-04-12T11:43:56.285Z,4.90
2024-04-12T11:46:25.802Z,4.50
2024-04-12T11:48:58.426Z,4.47
2024-04-12T11:51:34.761Z,4.50
2024-04-12T11:54:06.575Z,4.97
2024-04-12T11:56:35.468Z,4.93
2024-04-12T11:59:04.020Z,4.60
2024-04-12T12:01:33.319Z,3.90
2024-04-12T12:04:01.684Z,4.27
2024-04-12T12:06:31.951Z,3.50
2024-04-12T12:09:00.595Z,3.77
2024-04-12T12:11:29.649Z,4.23
2024-04-12T12:13:59.011Z,4.00
2024-04-12T12:16:30.023Z,3.80
2024-04-12T12:18:58.989Z,4.30
2024-04-12T12:21:29.931Z,4.10
2024-04-12T12:23:58.954Z,4.43
2024-04-12T12:26:27.522Z,4.07
2024-04-12T12:28:56.561Z,3.60
2024-04-12T12:31:28.386Z,3.83
2024-04-12T12:33:56.951Z,4.03
2024-04-12T12:36:27.159Z,4.07
2024-04-12T12:38:56.068Z,3.90
2024-04-12T12:41:25.200Z,4.10
2024-04-12T12:43:54.377Z,3.67
2024-04-12T12:46:22.948Z,3.23
2024-04-12T12:48:54.358Z,3.10
2024-04-12T12:51:27.628Z,3.50
2024-04-12T12:53:57.013Z,3.50
2024-04-12T12:56:25.421Z,2.93
2024-04-12T12:58:53.790Z,2.77
2024-04-12T13:01:22.710Z,2.63
2024-04-12T13:03:51.813Z,2.67
2024-04-12T13:06:23.789Z,2.40
2024-04-12T13:08:53.076Z,2.53
2024-04-12T13:11:26.373Z,2.20
2024-04-12T13:13:55.179Z,2.20
2024-04-12T13:16:27.787Z,2.20
2024-04-12T13:18:58.704Z,2.03
2024-04-12T13:21:27.654Z,2.00
2024-04-12T13:23:58.392Z,2.60
2024-04-12T13:26:33.382Z,2.07
2024-04-12T13:29:02.618Z,1.70
2024-04-12T13:31:34.736Z,2.27
2024-04-12T13:34:10.279Z,2.27
2024-04-12T13:36:42.143Z,1.90
2024-04-12T13:39:15.283Z,2.17
2024-04-12T13:41:46.586Z,2.00
2024-04-12T13:44:47.823Z,2.40
2024-04-12T13:47:35.424Z,2.10
2024-04-12T13:50:23.271Z,2.37
2024-04-12T13:52:54.894Z,2.20
2024-04-12T13:55:23.729Z,2.17
2024-04-12T13:57:54.578Z,2.43
2024-04-12T14:00:32.010Z,2.13
2024-04-12T14:03:08.024Z,1.97
2024-04-12T14:05:38.296Z,2.07
2024-04-12T14:08:11.288Z,1.80
2024-04-12T14:10:41.923Z,2.10
2024-04-12T14:13:18.470Z,1.77
2024-04-12T14:15:48.956Z,2.10
2024-04-12T14:18:17.611Z,1.90
2024-04-12T14:20:47.328Z,1.77
2024-04-12T14:23:16.036Z,2.17
2024-04-12T14:25:46.339Z,2.27
2024-04-12T14:28:16.199Z,2.10
2024-04-12T14:30:45.478Z,2.07
2024-04-12T14:33:16.111Z,1.90
2024-04-12T14:35:47.378Z,2.90
2024-04-12T14:38:17.261Z,2.17
2024-04-12T14:41:11.037Z,1.77
2024-04-12T14:43:40.667Z,1.80
2024-04-12T14:46:09.504Z,2.30
2024-04-12T14:48:39.195Z,2.30
2024-04-12T14:51:08.793Z,2.53
2024-04-12T14:53:37.665Z,1.70
2024-04-12T14:56:09.618Z,1.90
2024-04-12T14:58:39.683Z,1.80
2024-04-12T15:01:09.595Z,1.73
2024-04-12T15:03:57.166Z,1.87
2024-04-12T15:06:44.422Z,1.60
2024-04-12T15:09:31.830Z,2.00
2024-04-12T15:12:20.499Z,1.90
2024-04-12T15:15:08.878Z,2.00
2024-04-12T15:17:56.663Z,2.00
2024-04-12T15:20:43.988Z,2.03
2024-04-12T15:23:31.401Z,2.50
2024-04-12T15:26:18.765Z,2.77
2024-04-12T15:29:05.740Z,2.60
2024-04-12T15:31:52.829Z,2.50
2024-04-12T15:34:40.509Z,2.47
2024-04-12T15:37:28.028Z,2.30
2024-04-12T15:40:15.515Z,3.03
2024-04-12T15:43:02.549Z,2.30
2024-04-12T15:45:49.675Z,2.60
2024-04-12T15:48:18.237Z,2.50
2024-04-12T15:50:50.899Z,2.57
2024-04-12T15:53:19.741Z,2.40
2024-04-12T15:55:53.961Z,2.63
2024-04-12T15:58:45.336Z,2.17
2024-04-12T16:01:33.566Z,2.40
2024-04-12T16:04:22.632Z,2.57
2024-04-12T16:07:09.969Z,2.67
2024-04-12T16:10:01.061Z,2.17
2024-04-12T16:12:29.563Z,2.10
2024-04-12T16:15:00.472Z,1.90
2024-04-12T16:17:29.875Z,2.80
2024-04-12T16:19:59.341Z,2.53
2024-04-12T16:22:28.793Z,2.47
2024-04-12T16:24:58.564Z,2.53
2024-04-12T16:27:27.179Z,2.50
2024-04-12T16:29:57.962Z,2.27
2024-04-12T16:32:26.575Z,2.40
2024-04-12T16:34:59.004Z,2.70
2024-04-12T16:37:27.594Z,2.73
2024-04-12T16:39:56.260Z,2.40
2024-04-12T16:42:25.938Z,3.40
2024-04-12T16:44:54.474Z,2.87
2024-04-12T16:47:24.106Z,2.80
2024-04-12T16:49:52.547Z,3.53
2024-04-12T16:52:21.118Z,3.23
2024-04-12T16:54:49.531Z,3.30
2024-04-12T16:57:18.197Z,2.90
2024-04-12T16:59:46.842Z,3.17
2024-04-12T17:02:15.355Z,2.77
2024-04-12T17:04:45.922Z,3.10
2024-04-12T17:07:14.485Z,3.60
2024-04-12T17:09:42.905Z,2.93
2024-04-12T17:12:15.865Z,3.60
2024-04-12T17:14:44.560Z,3.20
2024-04-12T17:17:12.989Z,3.13
2024-04-12T17:19:41.326Z,3.23
2024-04-12T17:22:09.741Z,3.80
2024-04-12T17:24:39.013Z,3.07
2024-04-12T17:27:07.976Z,3.33
2024-04-12T17:29:36.453Z,3.23
2024-04-12T17:32:05.275Z,3.20
2024-04-12T17:34:34.427Z,3.37
2024-04-12T17:37:03.053Z,3.50
2024-04-12T17:39:31.437Z,3.00
2024-04-12T17:41:59.790Z,3.00
2024-04-12T17:44:28.314Z,3.97
2024-04-12T17:46:58.139Z,3.67
2024-04-12T17:51:56.806Z,3.50
2024-04-12T17:54:25.312Z,3.23
2024-04-12T17:56:53.742Z,3.20
2024-04-12T17:59:22.222Z,2.93
2024-04-12T18:01:53.069Z,3.60
2024-04-12T18:04:23.570Z,3.87
2024-04-12T18:06:52.054Z,3.80
2024-04-12T18:09:20.451Z,3.10
2024-04-12T18:11:49.261Z,3.60
2024-04-12T18:14:17.727Z,3.07
2024-04-12T18:16:47.486Z,3.23
2024-04-12T18:19:17.026Z,3.10
2024-04-12T18:21:46.867Z,3.03
2024-04-12T18:24:16.118Z,3.20
2024-04-12T18:26:45.441Z,3.27
2024-04-12T18:29:13.764Z,2.70
2024-04-12T18:31:43.945Z,3.30
2024-04-12T18:34:14.010Z,3.30
2024-04-12T18:37:02.008Z,3.77
2024-04-12T18:39:49.918Z,3.37
2024-04-12T18:42:37.115Z,3.30
2024-04-12T18:45:10.453Z,3.57
2024-04-12T18:47:42.173Z,3.40
2024-04-12T18:50:12.035Z,4.03
2024-04-12T18:52:42.354Z,3.60
2024-04-12T18:55:13.328Z,3.13
2024-04-12T18:57:43.899Z,3.03
2024-04-12T19:00:14.409Z,3.20
2024-04-12T19:02:43.574Z,3.10
2024-04-12T19:05:12.110Z,2.70
2024-04-12T19:07:40.508Z,2.63
2024-04-12T19:10:09.762Z,2.90
2024-04-12T19:12:38.599Z,3.03
2024-04-12T19:15:09.024Z,3.07
2024-04-12T19:17:37.550Z,2.83
2024-04-12T19:20:06.370Z,2.83
2024-04-12T19:22:34.707Z,3.20
2024-04-12T19:25:04.553Z,2.73
2024-04-12T19:27:34.912Z,3.17
2024-04-12T19:30:03.762Z,2.80
2024-04-12T19:32:32.240Z,3.47
2024-04-12T19:35:00.627Z,3.00
2024-04-12T19:37:28.928Z,2.77
2024-04-12T19:39:57.252Z,3.00
2024-04-12T19:42:25.715Z,2.87
2024-04-12T19:44:54.281Z,2.87
2024-04-12T19:47:24.586Z,2.53
2024-04-12T19:49:53.634Z,2.80
2024-04-12T19:52:22.038Z,2.90
2024-04-12T19:54:51.046Z,3.47
2024-04-12T19:57:21.531Z,3.30
2024-04-12T19:59:51.104Z,2.60
2024-04-12T20:02:22.672Z,3.10
2024-04-12T20:04:51.747Z,2.97
2024-04-12T20:07:20.261Z,2.63
2024-04-12T20:09:48.737Z,2.77
2024-04-12T20:12:21.469Z,3.00
2024-04-12T20:14:52.365Z,3.07
2024-04-12T20:17:22.619Z,2.90
2024-04-12T20:19:53.633Z,2.83
2024-04-12T20:22:25.367Z,2.97
2024-04-12T20:24:54.141Z,2.70
2024-04-12T20:27:23.700Z,2.97
2024-04-12T20:30:08.110Z,2.97
2024-04-12T20:32:39.674Z,2.73
2024-04-12T20:35:13.752Z,2.60
2024-04-12T20:37:43.845Z,2.93
2024-04-12T20:40:12.231Z,2.40
2024-04-12T20:42:40.750Z,2.87
2024-04-12T20:45:09.485Z,2.87
2024-04-12T20:47:38.191Z,2.80
2024-04-12T20:50:06.691Z,2.90
2024-04-12T20:52:35.279Z,2.93
2024-04-12T20:55:06.531Z,3.67
2024-04-12T20:57:35.056Z,3.27
2024-04-12T21:00:05.568Z,2.97
2024-04-12T21:02:34.299Z,3.87
2024-04-12T21:05:02.970Z,3.20
2024-04-12T21:07:31.462Z,3.80
2024-04-12T21:10:02.365Z,3.20
2024-04-12T21:12:30.816Z,3.40
2024-04-12T21:14:59.234Z,3.53
2024-04-12T21:17:27.558Z,3.37
2024-04-12T21:19:55.881Z,3.60
2024-04-12T21:22:24.333Z,3.17
2024-04-12T21:24:55.166Z,3.63
2024-04-12T21:27:24.838Z,3.30
2024-04-12T21:29:53.270Z,3.27
2024-04-12T21:32:23.602Z,3.27
2024-04-12T21:34:52.051Z,3.30
2024-04-12T21:37:20.696Z,3.87
2024-04-12T21:39:51.256Z,3.30
2024-04-12T21:42:20.080Z,3.30
2024-04-12T21:44:49.471Z,3.43
2024-04-12T21:47:18.972Z,3.57
2024-04-12T21:49:48.760Z,3.67
2024-04-12T21:52:17.411Z,3.87
2024-04-12T21:54:45.701Z,3.70
2024-04-12T21:57:14.083Z,3.90
2024-04-12T21:59:42.398Z,3.50
2024-04-12T22:02:10.882Z,4.07
2024-04-12T22:04:39.380Z,4.00
2024-04-12T22:07:08.080Z,3.60
2024-04-12T22:09:36.410Z,4.10
2024-04-12T22:12:05.150Z,4.40
2024-04-12T22:14:34.750Z,3.37
2024-04-12T22:17:03.084Z,3.70
2024-04-12T22:19:31.404Z,3.80
2024-04-12T22:22:00.274Z,3.43
2024-04-12T22:24:28.932Z,3.80
2024-04-12T22:27:06.289Z,3.60
2024-04-12T22:29:34.710Z,4.17
2024-04-12T22:32:03.002Z,4.20
2024-04-12T22:34:31.334Z,3.37
2024-04-12T22:36:59.668Z,3.37
2024-04-12T22:39:30.459Z,3.63
2024-04-12T22:41:59.349Z,3.33
2024-04-12T22:44:29.300Z,3.07
2024-04-12T22:46:59.064Z,4.30
2024-04-12T22:49:27.712Z,3.90
2024-04-12T22:51:56.435Z,3.53
2024-04-12T22:54:25.398Z,4.60
2024-04-12T22:56:53.940Z,3.80
2024-04-12T22:59:26.312Z,3.80
2024-04-12T23:01:54.917Z,3.70
2024-04-12T23:04:25.783Z,4.30
2024-04-12T23:06:54.180Z,3.87
2024-04-12T23:09:22.825Z,3.70
2024-04-12T23:11:51.266Z,4.10
2024-04-12T23:14:19.756Z,3.60
2024-04-12T23:16:48.154Z,3.83
2024-04-12T23:19:16.531Z,3.87
2024-04-12T23:21:45.848Z,3.90
2024-04-12T23:24:14.768Z,3.87
2024-04-12T23:26:43.136Z,3.70
2024-04-12T23:29:12.929Z,3.63
2024-04-12T23:31:41.382Z,4.00
2024-04-12T23:34:09.735Z,3.87
2024-04-12T23:36:38.060Z,4.20
2024-04-12T23:39:06.421Z,4.27
2024-04-12T23:41:35.788Z,3.83
2024-04-12T23:44:04.167Z,3.53
2024-04-12T23:46:33.892Z,4.00
2024-04-12T23:49:03.497Z,3.70
2024-04-12T23:51:32.320Z,4.20
2024-04-12T23:54:00.770Z,3.83
2024-04-12T23:56:29.938Z,4.10
2024-04-12T23:58:59.978Z,4.47
